createdAt,value
2019-01-24T00:01:34.908Z,95748.24
2019-01-24T00:04:04.414Z,95755.22
2019-01-24T00:06:33.854Z,95746.92
2019-01-24T00:09:04.039Z,95754.80
2019-01-24T00:11:33.540Z,95748.33
2019-01-24T00:14:03.379Z,95756.39
2019-01-24T00:16:32.782Z,95754.97
2019-01-24T00:19:02.162Z,95763.09
2019-01-24T00:21:31.553Z,95758.73
2019-01-24T00:24:00.967Z,95751.30
2019-01-24T00:26:30.390Z,95759.00
2019-01-24T00:28:59.773Z,95773.39
2019-01-24T00:31:29.151Z,95774.47
2019-01-24T00:33:58.602Z,95780.27
2019-01-24T00:36:27.984Z,95773.44
2019-01-24T00:38:57.747Z,95790.77
2019-01-24T00:41:27.124Z,95791.54
2019-01-24T00:43:56.560Z,95796.25
2019-01-24T00:46:25.944Z,95801.48
2019-01-24T00:48:55.327Z,95800.95
2019-01-24T00:51:24.768Z,95806.25
2019-01-24T00:53:54.239Z,95803.82
2019-01-24T00:56:23.615Z,95801.67
2019-01-24T00:58:52.990Z,95813.41
2019-01-24T01:01:22.462Z,95821.78
2019-01-24T01:03:52.097Z,95827.03
2019-01-24T01:06:21.646Z,95838.61
2019-01-24T01:08:51.007Z,95833.22
2019-01-24T01:11:20.467Z,95833.69
2019-01-24T01:13:49.916Z,95839.19
2019-01-24T01:16:19.385Z,95841.75
2019-01-24T01:18:48.805Z,95843.16
2019-01-24T01:21:18.260Z,95849.63
2019-01-24T01:23:47.649Z,95855.13
2019-01-24T01:26:17.051Z,95857.56
2019-01-24T01:28:46.571Z,95856.27
2019-01-24T01:31:16.016Z,95859.39
2019-01-24T01:33:45.523Z,95865.98
2019-01-24T01:36:14.985Z,95857.02
2019-01-24T01:38:44.423Z,95860.94
2019-01-24T01:41:13.838Z,95861.73
2019-01-24T01:43:43.231Z,95868.06
2019-01-24T01:46:12.650Z,95865.33
2019-01-24T01:48:42.057Z,95866.59
2019-01-24T01:51:11.515Z,95860.83
2019-01-24T01:53:40.964Z,95865.05
2019-01-24T01:56:10.440Z,95868.34
2019-01-24T01:58:39.862Z,95873.28
2019-01-24T02:01:09.251Z,95872.38
2019-01-24T02:03:38.650Z,95865.88
2019-01-24T02:06:08.100Z,95870.94
2019-01-24T02:08:37.558Z,95876.38
2019-01-24T02:11:07.040Z,95875.41
2019-01-24T02:13:36.446Z,95876.63
2019-01-24T02:16:05.989Z,95876.84
2019-01-24T02:18:35.454Z,95882.38
2019-01-24T02:21:05.138Z,95884.64
2019-01-24T02:23:34.634Z,95881.76
2019-01-24T02:26:04.127Z,95878.50
2019-01-24T02:28:33.488Z,95883.56
2019-01-24T02:31:02.980Z,95887.45
2019-01-24T02:33:32.430Z,95879.44
2019-01-24T02:36:01.916Z,95890.84
2019-01-24T02:38:31.381Z,95882.26
2019-01-24T02:41:00.739Z,95899.61
2019-01-24T02:43:30.127Z,95903.80
2019-01-24T02:45:59.868Z,95896.76
2019-01-24T02:48:29.238Z,95900.30
2019-01-24T02:50:58.593Z,95894.84
2019-01-24T02:53:27.959Z,95905.38
2019-01-24T02:55:57.422Z,95910.90
2019-01-24T02:58:26.857Z,95914.72
2019-01-24T03:00:56.233Z,95914.35
2019-01-24T03:03:25.599Z,95905.84
2019-01-24T03:05:55.060Z,95915.04
2019-01-24T03:08:24.452Z,95912.55
2019-01-24T03:10:53.896Z,95917.86
2019-01-24T03:13:23.267Z,95923.11
2019-01-24T03:15:52.650Z,95927.38
2019-01-24T03:18:22.125Z,95924.56
2019-01-24T03:20:51.487Z,95933.91
2019-01-24T03:23:20.927Z,95939.94
2019-01-24T03:25:50.301Z,95938.02
2019-01-24T03:28:19.662Z,95946.46
2019-01-24T03:30:49.033Z,95948.48
2019-01-24T03:33:18.505Z,95953.78
2019-01-24T03:35:48.185Z,95958.20
2019-01-24T03:38:17.581Z,95969.44
2019-01-24T03:40:47.020Z,95957.58
2019-01-24T03:43:16.390Z,95964.77
2019-01-24T03:45:45.776Z,95967.69
2019-01-24T03:48:15.333Z,95974.05
2019-01-24T03:50:44.737Z,95974.32
2019-01-24T03:53:14.270Z,95976.31
2019-01-24T03:55:43.627Z,95973.17
2019-01-24T03:58:13.071Z,95979.40
2019-01-24T04:00:42.556Z,95978.57
2019-01-24T04:03:12.037Z,95971.21
2019-01-24T04:05:41.451Z,95977.05
2019-01-24T04:08:11.034Z,95979.80
2019-01-24T04:10:40.436Z,95982.25
2019-01-24T04:13:09.982Z,95986.08
2019-01-24T04:15:39.526Z,95989.00
2019-01-24T04:18:09.295Z,95992.17
2019-01-24T04:20:38.675Z,95996.25
2019-01-24T04:23:08.028Z,95989.24
2019-01-24T04:25:37.423Z,95994.08
2019-01-24T04:28:06.817Z,96000.86
2019-01-24T04:30:36.429Z,96003.67
2019-01-24T04:33:05.855Z,95995.78
2019-01-24T04:35:35.248Z,96001.19
2019-01-24T04:38:04.717Z,96005.76
2019-01-24T04:40:34.158Z,96005.31
2019-01-24T04:43:03.533Z,96007.94
2019-01-24T04:45:33.054Z,96015.11
2019-01-24T04:48:02.422Z,96019.36
2019-01-24T04:50:31.769Z,96012.62
2019-01-24T04:53:02.236Z,96013.20
2019-01-24T04:55:31.614Z,96016.83
2019-01-24T04:58:00.990Z,96017.98
2019-01-24T05:00:31.209Z,96023.28
2019-01-24T05:03:00.742Z,96028.68
2019-01-24T05:05:30.177Z,96012.38
2019-01-24T05:07:59.619Z,96027.84
2019-01-24T05:10:28.984Z,96032.21
2019-01-24T05:12:58.329Z,96032.06
2019-01-24T05:15:27.692Z,96033.61
2019-01-24T05:17:57.128Z,96039.22
2019-01-24T05:20:26.492Z,96035.48
2019-01-24T05:22:55.897Z,96043.84
2019-01-24T05:25:25.266Z,96045.97
2019-01-24T05:27:54.628Z,96048.67
2019-01-24T05:30:26.085Z,96053.92
2019-01-24T05:32:55.551Z,96050.91
2019-01-24T05:35:25.281Z,96051.73
2019-01-24T05:37:54.604Z,96057.19
2019-01-24T05:40:24.081Z,96064.20
2019-01-24T05:42:53.501Z,96059.94
2019-01-24T05:45:23.019Z,96060.09
2019-01-24T05:47:52.417Z,96062.80
2019-01-24T05:50:21.852Z,96067.00
2019-01-24T05:52:51.230Z,96076.81
2019-01-24T05:55:20.617Z,96079.47
2019-01-24T05:57:49.961Z,96080.19
2019-01-24T06:00:38.492Z,96087.10
2019-01-24T06:03:07.872Z,96088.45
2019-01-24T06:05:41.714Z,96088.91
2019-01-24T06:08:09.557Z,96088.62
2019-01-24T06:10:39.175Z,96091.51
2019-01-24T06:13:08.547Z,96097.85
2019-01-24T06:15:37.922Z,96106.27
2019-01-24T06:18:08.324Z,96093.28
2019-01-24T06:20:37.781Z,96105.55
2019-01-24T06:23:07.217Z,96108.71
2019-01-24T06:25:36.589Z,96106.32
2019-01-24T06:28:06.112Z,96113.85
2019-01-24T06:30:35.554Z,96109.23
2019-01-24T06:33:05.177Z,96119.88
2019-01-24T06:35:34.544Z,96121.13
2019-01-24T06:38:03.961Z,96118.78
2019-01-24T06:40:33.444Z,96129.17
2019-01-24T06:43:03.072Z,96137.21
2019-01-24T06:45:32.547Z,96137.53
2019-01-24T06:48:01.979Z,96144.45
2019-01-24T06:50:31.412Z,96142.31
2019-01-24T06:53:00.954Z,96158.11
2019-01-24T06:55:30.444Z,96161.23
2019-01-24T06:57:59.798Z,96165.22
2019-01-24T07:00:29.481Z,96168.09
2019-01-24T07:02:58.890Z,96165.45
2019-01-24T07:05:28.513Z,96169.13
2019-01-24T07:07:57.907Z,96174.78
2019-01-24T07:10:27.332Z,96170.16
2019-01-24T07:12:56.793Z,96172.55
2019-01-24T07:15:26.223Z,96169.27
2019-01-24T07:17:55.652Z,96174.66
2019-01-24T07:20:25.340Z,96178.45
2019-01-24T07:22:54.758Z,96172.13
2019-01-24T07:25:25.642Z,96180.08
2019-01-24T07:27:55.160Z,96181.31
2019-01-24T07:30:24.602Z,96188.50
2019-01-24T07:32:54.038Z,96195.70
2019-01-24T07:35:23.500Z,96200.06
2019-01-24T07:37:52.917Z,96195.13
2019-01-24T07:40:22.384Z,96196.23
2019-01-24T07:42:51.757Z,96205.98
2019-01-24T07:45:29.503Z,96207.22
2019-01-24T07:47:58.905Z,96207.65
2019-01-24T07:50:28.333Z,96211.47
2019-01-24T07:52:57.685Z,96209.03
2019-01-24T07:55:27.048Z,96206.73
2019-01-24T07:57:56.500Z,96213.96
2019-01-24T08:00:26.500Z,96210.27
2019-01-24T08:02:55.930Z,96211.50
2019-01-24T08:05:25.815Z,96220.59
2019-01-24T08:07:56.892Z,96219.83
2019-01-24T08:10:26.374Z,96224.15
2019-01-24T08:12:55.830Z,96224.29
2019-01-24T08:15:25.321Z,96228.08
2019-01-24T08:17:54.802Z,96230.28
2019-01-24T08:20:25.648Z,96233.34
2019-01-24T08:22:55.111Z,96238.05
2019-01-24T08:25:24.561Z,96234.61
2019-01-24T08:27:53.987Z,96242.77
2019-01-24T08:30:28.567Z,96243.97
2019-01-24T08:32:58.091Z,96250.53
2019-01-24T08:35:27.551Z,96245.44
2019-01-24T08:37:57.036Z,96245.20
2019-01-24T08:40:26.723Z,96247.44
2019-01-24T08:42:56.181Z,96247.93
2019-01-24T08:45:25.650Z,96248.70
2019-01-24T08:47:55.361Z,96253.39
2019-01-24T08:50:29.086Z,96258.59
2019-01-24T08:52:58.595Z,96254.75
2019-01-24T08:55:30.283Z,96256.59
2019-01-24T08:57:59.672Z,96257.39
2019-01-24T09:00:29.205Z,96258.95
2019-01-24T09:02:58.741Z,96262.84
2019-01-24T09:05:28.380Z,96268.24
2019-01-24T09:07:57.809Z,96262.38
2019-01-24T09:10:29.692Z,96270.44
2019-01-24T09:12:59.270Z,96267.58
2019-01-24T09:15:29.318Z,96266.74
2019-01-24T09:17:58.772Z,96268.94
2019-01-24T09:20:28.286Z,96276.06
2019-01-24T09:22:57.753Z,96276.70
2019-01-24T09:25:27.231Z,96275.97
2019-01-24T09:27:56.640Z,96279.56
2019-01-24T09:30:26.888Z,96281.69
2019-01-24T09:32:56.411Z,96289.25
2019-01-24T09:35:25.924Z,96283.25
2019-01-24T09:37:55.429Z,96287.62
2019-01-24T09:40:25.268Z,96291.69
2019-01-24T09:42:54.792Z,96291.63
2019-01-24T09:45:25.784Z,96297.29
2019-01-24T09:47:56.817Z,96299.67
2019-01-24T09:50:26.643Z,96297.97
2019-01-24T09:52:56.224Z,96302.17
2019-01-24T09:55:25.709Z,96310.50
2019-01-24T09:57:55.171Z,96313.58
2019-01-24T10:00:26.739Z,96318.36
2019-01-24T10:02:56.258Z,96313.05
2019-01-24T10:05:25.782Z,96311.55
2019-01-24T10:07:55.898Z,96321.74
2019-01-24T10:10:25.797Z,96321.90
2019-01-24T10:12:55.895Z,96318.94
2019-01-24T10:15:25.456Z,96326.27
2019-01-24T10:17:54.962Z,96324.91
2019-01-24T10:20:25.522Z,96325.48
2019-01-24T10:22:55.155Z,96325.13
2019-01-24T10:25:27.324Z,96322.67
2019-01-24T10:27:56.869Z,96319.71
2019-01-24T10:30:26.382Z,96318.10
2019-01-24T10:32:55.854Z,96319.14
2019-01-24T10:35:25.291Z,96315.50
2019-01-24T10:37:54.746Z,96323.09
2019-01-24T10:40:27.313Z,96315.71
2019-01-24T10:42:56.817Z,96318.36
2019-01-24T10:45:26.156Z,96317.67
2019-01-24T10:47:55.935Z,96313.62
2019-01-24T10:50:26.184Z,96317.19
2019-01-24T10:52:55.533Z,96312.48
2019-01-24T10:55:26.543Z,96314.48
2019-01-24T10:57:57.981Z,96317.30
2019-01-24T11:00:33.192Z,96315.66
2019-01-24T11:03:03.911Z,96316.30
2019-01-24T11:05:33.558Z,96307.93
2019-01-24T11:08:03.087Z,96309.42
2019-01-24T11:10:32.673Z,96306.02
2019-01-24T11:13:04.125Z,96312.35
2019-01-24T11:15:33.729Z,96309.06
2019-01-24T11:18:03.107Z,96310.52
2019-01-24T11:20:32.562Z,96309.91
2019-01-24T11:23:02.011Z,96308.20
2019-01-24T11:25:31.431Z,96307.50
2019-01-24T11:28:00.833Z,96305.60
2019-01-24T11:30:30.863Z,96305.84
2019-01-24T11:33:00.785Z,96312.02
2019-01-24T11:35:32.231Z,96315.81
2019-01-24T11:38:01.604Z,96311.66
2019-01-24T11:40:31.106Z,96317.47
2019-01-24T11:43:00.663Z,96314.50
2019-01-24T11:45:33.137Z,96315.45
2019-01-24T11:48:02.667Z,96313.55
2019-01-24T11:50:32.166Z,96325.06
2019-01-24T11:53:01.772Z,96324.23
2019-01-24T11:55:31.418Z,96323.52
2019-01-24T11:58:00.857Z,96321.02
2019-01-24T12:00:38.725Z,96326.00
2019-01-24T12:03:08.179Z,96323.03
2019-01-24T12:05:37.729Z,96325.28
2019-01-24T12:08:09.909Z,96325.41
2019-01-24T12:10:39.309Z,96320.78
2019-01-24T12:13:08.759Z,96314.84
2019-01-24T12:15:39.154Z,96313.66
2019-01-24T12:18:08.586Z,96322.31
2019-01-24T12:20:37.999Z,96317.09
2019-01-24T12:23:07.441Z,96318.39
2019-01-24T12:25:37.058Z,96317.45
2019-01-24T12:28:06.579Z,96322.73
2019-01-24T12:30:36.719Z,96325.16
2019-01-24T12:33:07.103Z,96324.69
2019-01-24T12:35:36.668Z,96321.20
2019-01-24T12:38:06.219Z,96320.84
2019-01-24T12:40:35.641Z,96317.62
2019-01-24T12:43:05.287Z,96321.25
2019-01-24T12:45:36.229Z,96320.78
2019-01-24T12:48:06.594Z,96319.09
2019-01-24T12:50:36.148Z,96324.20
2019-01-24T12:53:06.610Z,96321.44
2019-01-24T12:55:36.063Z,96323.58
2019-01-24T12:58:05.887Z,96323.35
2019-01-24T13:00:40.346Z,96325.62
2019-01-24T13:03:09.811Z,96331.21
2019-01-24T13:05:39.261Z,96328.85
2019-01-24T13:08:09.101Z,96327.53
2019-01-24T13:10:38.581Z,96323.12
2019-01-24T13:13:08.049Z,96326.07
2019-01-24T13:15:37.615Z,96334.12
2019-01-24T13:18:07.159Z,96332.20
2019-01-24T13:20:36.670Z,96339.20
2019-01-24T13:23:06.162Z,96327.53
2019-01-24T13:25:35.739Z,96340.59
2019-01-24T13:28:06.081Z,96340.84
2019-01-24T13:30:35.724Z,96344.50
2019-01-24T13:33:06.192Z,96344.11
2019-01-24T13:35:35.975Z,96344.91
2019-01-24T13:38:06.392Z,96349.91
2019-01-24T13:40:38.751Z,96356.42
2019-01-24T13:43:08.633Z,96352.95
2019-01-24T13:45:39.408Z,96356.00
2019-01-24T13:48:08.927Z,96355.45
2019-01-24T13:50:38.375Z,96367.03
2019-01-24T13:53:08.099Z,96363.81
2019-01-24T13:55:39.333Z,96365.84
2019-01-24T13:58:09.286Z,96360.63
2019-01-24T14:00:40.175Z,96362.52
2019-01-24T14:03:31.016Z,96363.13
2019-01-24T14:06:00.716Z,96366.20
2019-01-24T14:08:30.073Z,96368.58
2019-01-24T14:10:59.688Z,96365.89
2019-01-24T14:13:29.038Z,96370.08
2019-01-24T14:15:58.431Z,96362.91
2019-01-24T14:18:27.850Z,96365.13
2019-01-24T14:20:57.213Z,96363.13
2019-01-24T14:23:26.834Z,96365.46
2019-01-24T14:25:56.531Z,96371.28
2019-01-24T14:28:26.240Z,96365.10
2019-01-24T14:30:55.683Z,96367.06
2019-01-24T14:33:25.118Z,96370.11
2019-01-24T14:35:55.746Z,96373.55
2019-01-24T14:38:25.226Z,96377.21
2019-01-24T14:40:54.636Z,96389.20
2019-01-24T14:43:24.024Z,96390.36
2019-01-24T14:45:53.392Z,96388.50
2019-01-24T14:48:22.759Z,96396.28
2019-01-24T14:50:52.101Z,96397.70
2019-01-24T14:53:21.603Z,96397.84
2019-01-24T14:55:50.973Z,96404.67
2019-01-24T14:58:20.431Z,96405.88
2019-01-24T15:01:08.591Z,96404.21
2019-01-24T15:03:37.979Z,96402.18
2019-01-24T15:06:07.357Z,96406.27
2019-01-24T15:08:36.787Z,96412.02
2019-01-24T15:11:07.470Z,96418.11
2019-01-24T15:13:36.820Z,96416.96
2019-01-24T15:16:06.268Z,96419.31
2019-01-24T15:18:35.689Z,96418.99
2019-01-24T15:21:05.156Z,96417.80
2019-01-24T15:23:34.578Z,96421.19
2019-01-24T15:26:04.119Z,96420.14
2019-01-24T15:28:33.598Z,96431.72
2019-01-24T15:31:03.056Z,96429.47
2019-01-24T15:33:32.432Z,96433.44
2019-01-24T15:36:01.802Z,96438.39
2019-01-24T15:38:31.198Z,96435.00
2019-01-24T15:41:00.655Z,96437.72
2019-01-24T15:43:30.016Z,96444.64
2019-01-24T15:45:59.407Z,96440.42
2019-01-24T15:48:28.958Z,96453.29
2019-01-24T15:50:58.428Z,96454.07
2019-01-24T15:53:27.898Z,96462.88
2019-01-24T15:55:57.523Z,96463.60
2019-01-24T15:58:26.886Z,96472.41
2019-01-24T16:00:56.331Z,96464.06
2019-01-24T16:03:25.890Z,96475.01
2019-01-24T16:05:55.736Z,96471.41
2019-01-24T16:08:25.078Z,96480.84
2019-01-24T16:10:55.817Z,96477.97
2019-01-24T16:13:25.181Z,96483.86
2019-01-24T16:15:54.887Z,96487.97
2019-01-24T16:18:24.274Z,96490.31
2019-01-24T16:20:53.736Z,96497.09
2019-01-24T16:23:23.174Z,96494.64
2019-01-24T16:25:52.669Z,96503.13
2019-01-24T16:28:24.843Z,96506.05
2019-01-24T16:30:53.182Z,96517.39
2019-01-24T16:33:22.588Z,96512.38
2019-01-24T16:35:52.022Z,96514.80
2019-01-24T16:38:21.389Z,96512.00
2019-01-24T16:40:50.879Z,96516.94
2019-01-24T16:43:20.352Z,96515.98
2019-01-24T16:45:49.738Z,96521.41
2019-01-24T16:48:19.219Z,96512.64
2019-01-24T16:50:48.741Z,96521.20
2019-01-24T16:53:18.081Z,96520.91
2019-01-24T16:55:47.451Z,96521.88
2019-01-24T16:58:16.800Z,96520.77
2019-01-24T17:00:50.084Z,96522.23
2019-01-24T17:03:19.450Z,96523.37
2019-01-24T17:05:48.918Z,96529.32
2019-01-24T17:08:18.284Z,96532.75
2019-01-24T17:10:48.018Z,96530.08
2019-01-24T17:13:17.386Z,96530.08
2019-01-24T17:15:46.845Z,96539.39
2019-01-24T17:18:16.342Z,96528.17
2019-01-24T17:20:45.699Z,96532.81
2019-01-24T17:23:15.146Z,96536.78
2019-01-24T17:25:44.504Z,96534.16
2019-01-24T17:28:13.936Z,96540.78
2019-01-24T17:30:43.349Z,96536.39
2019-01-24T17:33:12.827Z,96550.99
2019-01-24T17:35:42.446Z,96548.31
2019-01-24T17:38:11.849Z,96549.83
2019-01-24T17:40:41.599Z,96537.76
2019-01-24T17:43:11.662Z,96552.08
2019-01-24T17:45:41.085Z,96548.72
2019-01-24T17:48:10.568Z,96554.08
2019-01-24T17:50:39.964Z,96556.87
2019-01-24T17:53:09.355Z,96571.13
2019-01-24T17:55:41.021Z,96567.31
2019-01-24T17:58:11.596Z,96572.76
2019-01-24T18:00:45.550Z,96583.45
2019-01-24T18:03:15.060Z,96580.56
2019-01-24T18:05:44.729Z,96580.59
2019-01-24T18:08:14.510Z,96587.09
2019-01-24T18:10:43.933Z,96587.73
2019-01-24T18:13:13.445Z,96591.25
2019-01-24T18:15:42.909Z,96603.23
2019-01-24T18:18:14.159Z,96598.04
2019-01-24T18:20:43.990Z,96597.76
2019-01-24T18:23:13.698Z,96604.55
2019-01-24T18:25:43.123Z,96605.12
2019-01-24T18:28:13.464Z,96605.53
2019-01-24T18:30:43.108Z,96609.32
2019-01-24T18:33:12.749Z,96619.73
2019-01-24T18:35:42.211Z,96615.66
2019-01-24T18:38:11.755Z,96606.67
2019-01-24T18:40:41.493Z,96615.20
2019-01-24T18:43:15.370Z,96616.00
2019-01-24T18:45:47.218Z,96620.63
2019-01-24T18:48:16.649Z,96617.87
2019-01-24T18:50:47.181Z,96630.52
2019-01-24T18:53:16.697Z,96632.63
2019-01-24T18:55:46.121Z,96632.45
2019-01-24T18:58:15.591Z,96639.16
2019-01-24T19:00:46.930Z,96644.92
2019-01-24T19:03:16.432Z,96654.19
2019-01-24T19:05:46.214Z,96648.85
2019-01-24T19:08:15.685Z,96656.00
2019-01-24T19:10:45.056Z,96654.41
2019-01-24T19:13:14.547Z,96661.42
2019-01-24T19:15:45.734Z,96659.69
2019-01-24T19:18:15.214Z,96666.38
2019-01-24T19:20:44.651Z,96669.32
2019-01-24T19:23:14.091Z,96666.28
2019-01-24T19:25:43.567Z,96664.36
2019-01-24T19:28:15.445Z,96671.15
2019-01-24T19:30:44.826Z,96667.78
2019-01-24T19:33:14.297Z,96661.13
2019-01-24T19:35:43.763Z,96673.91
2019-01-24T19:38:13.220Z,96668.48
2019-01-24T19:40:43.276Z,96673.22
2019-01-24T19:43:12.733Z,96675.91
2019-01-24T19:45:42.100Z,96676.38
2019-01-24T19:48:11.651Z,96674.90
2019-01-24T19:50:41.027Z,96674.66
2019-01-24T19:53:10.479Z,96681.77
2019-01-24T19:55:39.915Z,96678.42
2019-01-24T19:58:09.285Z,96689.84
2019-01-24T20:00:38.682Z,96694.20
2019-01-24T20:03:08.234Z,96691.52
2019-01-24T20:05:37.594Z,96699.55
2019-01-24T20:08:07.043Z,96704.53
2019-01-24T20:10:36.404Z,96710.41
2019-01-24T20:13:06.028Z,96701.13
2019-01-24T20:15:35.623Z,96705.31
2019-01-24T20:18:06.485Z,96701.83
2019-01-24T20:20:37.633Z,96714.80
2019-01-24T20:23:07.261Z,96713.74
2019-01-24T20:25:36.710Z,96713.24
2019-01-24T20:28:06.168Z,96716.27
2019-01-24T20:30:35.614Z,96714.28
2019-01-24T20:33:05.568Z,96721.07
2019-01-24T20:35:37.712Z,96723.91
2019-01-24T20:38:07.622Z,96727.72
2019-01-24T20:40:37.179Z,96729.89
2019-01-24T20:43:08.823Z,96732.10
2019-01-24T20:45:38.556Z,96737.67
2019-01-24T20:48:08.154Z,96735.49
2019-01-24T20:50:37.497Z,96732.05
2019-01-24T20:53:07.039Z,96733.91
2019-01-24T20:55:36.486Z,96733.13
2019-01-24T20:58:06.254Z,96742.31
2019-01-24T21:00:35.772Z,96749.45
2019-01-24T21:03:05.608Z,96742.41
2019-01-24T21:05:35.030Z,96759.20
2019-01-24T21:08:04.931Z,96755.85
2019-01-24T21:10:34.301Z,96760.10
2019-01-24T21:13:03.643Z,96753.86
2019-01-24T21:15:33.021Z,96747.30
2019-01-24T21:18:02.362Z,96748.66
2019-01-24T21:20:32.030Z,96758.04
2019-01-24T21:23:01.502Z,96750.77
2019-01-24T21:25:30.957Z,96746.78
2019-01-24T21:28:00.615Z,96744.26
2019-01-24T21:30:32.515Z,96740.38
2019-01-24T21:33:01.962Z,96749.39
2019-01-24T21:35:31.418Z,96756.15
2019-01-24T21:38:00.809Z,96756.69
2019-01-24T21:40:30.280Z,96753.09
2019-01-24T21:42:59.733Z,96762.80
2019-01-24T21:45:31.375Z,96758.45
2019-01-24T21:48:00.906Z,96763.39
2019-01-24T21:50:31.663Z,96759.59
2019-01-24T21:53:01.136Z,96759.52
2019-01-24T21:55:30.894Z,96753.56
2019-01-24T21:58:00.315Z,96745.84
2019-01-24T22:00:29.866Z,96744.73
2019-01-24T22:02:59.209Z,96750.03
2019-01-24T22:05:28.776Z,96766.50
2019-01-24T22:07:58.149Z,96768.05
2019-01-24T22:10:28.421Z,96764.12
2019-01-24T22:12:58.217Z,96779.95
2019-01-24T22:15:28.924Z,96782.60
2019-01-24T22:17:58.348Z,96789.94
2019-01-24T22:20:27.826Z,96789.15
2019-01-24T22:22:57.467Z,96790.45
2019-01-24T22:25:31.995Z,96796.07
2019-01-24T22:28:01.480Z,96797.14
2019-01-24T22:30:36.261Z,96804.94
2019-01-24T22:33:06.042Z,96809.14
2019-01-24T22:35:35.486Z,96806.98
2019-01-24T22:38:06.055Z,96805.01
2019-01-24T22:40:35.520Z,96810.09
2019-01-24T22:43:05.415Z,96809.66
2019-01-24T22:45:35.041Z,96807.72
2019-01-24T22:48:05.952Z,96807.42
2019-01-24T22:50:35.339Z,96813.44
2019-01-24T22:53:05.196Z,96802.56
2019-01-24T22:55:34.679Z,96809.14
2019-01-24T22:58:04.095Z,96811.94
2019-01-24T23:00:52.438Z,96806.20
2019-01-24T23:03:34.413Z,96809.99
2019-01-24T23:06:03.912Z,96814.66
2019-01-24T23:08:33.312Z,96799.41
2019-01-24T23:11:02.914Z,96812.59
2019-01-24T23:13:32.359Z,96817.42
2019-01-24T23:16:01.777Z,96812.83
2019-01-24T23:18:31.504Z,96809.47
2019-01-24T23:21:01.009Z,96810.09
2019-01-24T23:23:30.362Z,96809.55
2019-01-24T23:25:59.739Z,96811.39
2019-01-24T23:28:29.275Z,96801.83
2019-01-24T23:30:58.737Z,96806.34
2019-01-24T23:33:28.183Z,96811.78
2019-01-24T23:35:57.600Z,96808.66
2019-01-24T23:38:27.064Z,96816.05
2019-01-24T23:40:56.487Z,96818.64
2019-01-24T23:43:26.016Z,96818.52
2019-01-24T23:45:55.591Z,96818.95
2019-01-24T23:48:25.000Z,96808.80
2019-01-24T23:50:54.513Z,96812.33
2019-01-24T23:53:23.966Z,96809.11
2019-01-24T23:55:53.409Z,96803.66
2019-01-24T23:58:22.812Z,96807.23
